Aérodrome :
LOGIN :

S'inscrire | Disclaimer

   EN    FR    IT 

 










Légende :    VFR   VFR Marginal   IFR   IFR Intensif   IFR Très Intensif
Visi : 
Plafond : 
>= 8 km
>= 3000ft
5 à 8 km
1000 à 3000 ft
1500m à 5 km
500 à 1000 ft
800 à 1500m
200 à 500 ft
< 800m
< 200 ft
Symboles :   Orages  Brouillard  Fortes neiges  Fortes précipitations  Vent > 20 kt
SIGMETs :   Divers  Orages  Givrage  Turbulence  Onde Orograph.  Cendres Volcan.







- Altitude de l'aérodrome : 364 ft
- Voir les cartes d'approche


LFAQ - Albert Bray

DERNIER METAR :
  • 171700Z AUTO 20008KT CAVOK 05/05 Q1023 BECMG OVC006

METARs EXPIRÉS :
  • 171630Z AUTO 20008KT CAVOK 06/05 Q1022 BECMG OVC006
  • 171600Z AUTO 20007KT CAVOK 06/05 Q1022 NOSIG
  • 171530Z AUTO 19007KT CAVOK 07/06 Q1022 NOSIG
  • 171500Z AUTO 21008KT 9999 SCT015/// SCT024/// BKN060/// ///TCU 08/06 Q1022 BECMG SCT030
  • 171430Z AUTO 23010KT 9999 BKN014 BKN062 09/07 Q1022 BECMG SCT030
  • 171400Z AUTO 23008KT 9999 FEW014 08/07 Q1021 NOSIG

TAF TAF LFAQ
Valide du 17 à 15h jusqu'au 18 à 00h UTC


171400Z 1715/1724 20010KT 9999 SCT030
BECMG 1718/1720 OVC006
TEMPO 1720/1724 3000 BR OVC003
Pas de NOTAMs connus pour ce terrain.



MET'MAP, la Météo Aéronautique d'un coup d'oeil ! - Copyright ORBIFLY Décembre 2007 - Disclaimer

ORBIFLY MET'MAP TEAM :

Programmation & Développement : Alexandra Zaïnal
Conception & Développement : Baudouin d'Aumeries
Co-Programmation & Développement : Marc-Olivier Méhu
Soutien technique & logistique : Manuel Goepfert

Contact : metmap@orbifly.com




SOURCES & CREDITS :

   NOAA